Time;durP1;ratioP1;P1;durP2;ratioP2;P2;SDS_P1;SDS_P2;PMS_P1;PMS_P2;Temp;Humidity;BMP_temperature;BMP_pressure;BME280_temperature;BME280_humidity;BME280_pressure;Samples;Min_cycle;Max_cycle;Signal;HPM_P1;HPM_P2
2022/01/10 00:00:11;;;;;;;5.85;2.10;;;16.30;88.30;;;;;;5055127;28;20029;-46
2022/01/10 00:02:38;;;;;;;3.58;1.80;;;;;;;;;;5054808;28;20041;-46
2022/01/10 00:05:04;;;;;;;3.90;2.03;;;;;;;;;;5055025;28;20499;-46
2022/01/10 00:07:30;;;;;;;3.85;1.58;;;;;;;;;;5054933;28;20032;-46
2022/01/10 00:09:56;;;;;;;5.28;1.80;;;;;;;;;;5055095;28;20028;-46
2022/01/10 00:12:22;;;;;;;3.05;1.52;;;;;;;;;;5054845;28;20399;-46
2022/01/10 00:14:48;;;;;;;3.58;1.65;;;;;;;;;;5054703;28;20064;-47
2022/01/10 00:17:14;;;;;;;4.93;1.90;;;;;;;;;;5054163;28;20480;-46
2022/01/10 00:19:40;;;;;;;5.03;2.30;;;;;;;;;;5054641;28;20589;-46
2022/01/10 00:22:08;;;;;;;4.72;1.67;;;;;;;;;;5054697;28;20076;-47
2022/01/10 00:24:34;;;;;;;4.82;2.35;;;;;;;;;;5054583;28;20562;-46
2022/01/10 00:27:00;;;;;;;4.82;1.92;;;;;;;;;;5054622;28;20100;-46
2022/01/10 00:29:26;;;;;;;5.10;2.38;;;;;;;;;;5054575;28;20029;-46
2022/01/10 00:31:52;;;;;;;4.13;2.13;;;;;;;;;;5054564;28;20064;-46
2022/01/10 00:34:18;;;;;;;5.53;1.70;;;;;;;;;;5054492;28;20492;-46
2022/01/10 00:36:44;;;;;;;4.25;1.95;;;;;;;;;;5054458;28;20028;-48
2022/01/10 00:39:10;;;;;;;5.38;1.95;;;;;;;;;;5054293;28;20399;-46
2022/01/10 00:41:37;;;;;;;4.72;1.77;;;;;;;;;;5054534;28;20017;-47
2022/01/10 00:44:04;;;;;;;3.72;2.08;;;;;;;;;;5054502;28;20383;-47
2022/01/10 00:46:30;;;;;;;3.40;1.90;;;;;;;;;;5054200;28;20021;-46
2022/01/10 00:48:56;;;;;;;3.88;2.03;;;;;;;;;;5054461;28;20029;-46
2022/01/10 00:51:22;;;;;;;3.20;1.70;;;;;;;;;;5054423;28;20021;-45
2022/01/10 00:53:50;;;;;;;3.80;1.98;;;;;;;;;;5053985;28;20041;-47
2022/01/10 00:56:16;;;;;;;4.65;1.80;;;;;;;;;;5054348;28;20094;-46
2022/01/10 00:58:42;;;;;;;2.90;1.95;;;;;;;;;;5054017;28;20033;-46
2022/01/10 01:01:08;;;;;;;4.57;2.03;;;;;;;;;;5054091;28;20418;-46
2022/01/10 01:03:34;;;;;;;6.05;2.28;;;;;;;;;;5053737;28;20109;-47
2022/01/10 01:06:00;;;;;;;5.38;1.80;;;;;;;;;;5053852;28;20026;-46
2022/01/10 01:08:29;;;;;;;5.88;1.75;;;;;;;;;;5053962;28;20090;-47
2022/01/10 01:14:07;;;;;;;3.95;1.80;;;;;;;;;;5053739;28;20043;-46
2022/01/10 01:16:42;;;;;;;3.70;1.90;;;;;;;;;;5053761;28;20049;-46
2022/01/10 01:24:22;;;;;;;3.75;2.00;;;;;;;;;;5053549;28;20048;-45
2022/01/10 01:26:50;;;;;;;2.10;1.30;;;15.70;89.50;;;;;;5053516;28;20029;-46
2022/01/10 01:29:18;;;;;;;5.45;1.40;;;15.70;89.30;;;;;;5052699;28;20391;-46
2022/01/10 01:31:44;;;;;;;4.05;1.92;;;;;;;;;;5053247;28;20399;-47
2022/01/10 01:34:12;;;;;;;3.25;1.65;;;15.70;89.20;;;;;;5053172;28;20044;-47
2022/01/10 01:36:38;;;;;;;5.03;1.88;;;;;;;;;;5053188;28;20021;-46
2022/01/10 01:39:16;;;;;;;3.38;2.10;;;15.60;89.20;;;;;;5053257;28;20032;-46
2022/01/10 01:41:43;;;;;;;5.82;2.03;;;;;;;;;;5053483;28;20024;-46
2022/01/10 01:44:09;;;;;;;5.32;2.00;;;;;;;;;;5053053;28;20102;-46
2022/01/10 01:46:35;;;;;;;4.68;1.60;;;15.60;87.60;;;;;;5053215;28;20104;-46
2022/01/10 01:49:02;;;;;;;3.70;2.10;;;;;;;;;;5053061;28;20464;-46
2022/01/10 01:51:28;;;;;;;4.05;1.77;;;;;;;;;;5052970;28;20582;-46
2022/01/10 01:53:54;;;;;;;3.67;1.67;;;;;;;;;;5052827;28;20120;-47
2022/01/10 01:56:20;;;;;;;5.13;1.80;;;;;;;;;;5052908;28;20104;-45
2022/01/10 01:58:46;;;;;;;3.33;1.80;;;15.60;87.40;;;;;;5052844;28;20037;-46
2022/01/10 02:01:16;;;;;;;4.80;1.70;;;15.50;89.70;;;;;;5052951;28;20073;-46
2022/01/10 02:03:43;;;;;;;3.80;2.00;;;;;;;;;;5052753;28;20060;-46
2022/01/10 02:06:09;;;;;;;4.50;1.70;;;;;;;;;;5051390;28;20079;-46
2022/01/10 02:08:35;;;;;;;4.50;1.58;;;;;;;;;;5053173;28;20103;-46
2022/01/10 02:11:02;;;;;;;4.28;2.10;;;;;;;;;;5052602;28;20082;-46
2022/01/10 02:13:28;;;;;;;4.80;2.20;;;;;;;;;;5052431;28;20037;-46
2022/01/10 02:16:01;;;;;;;4.57;1.98;;;;;;;;;;5052502;28;20106;-47
2022/01/10 02:18:27;;;;;;;2.53;1.25;;;;;;;;;;5052711;28;20396;-46
2022/01/10 02:20:53;;;;;;;4.03;2.00;;;15.50;88.90;;;;;;5052414;28;20491;-47
2022/01/10 02:23:20;;;;;;;3.83;2.00;;;;;;;;;;5052465;28;20436;-46
2022/01/10 02:25:46;;;;;;;4.90;1.90;;;;;;;;;;5052386;28;20028;-46
2022/01/10 02:28:12;;;;;;;2.95;2.08;;;;;;;;;;5052376;28;20064;-46
2022/01/10 02:30:39;;;;;;;3.92;2.03;;;15.50;88.50;;;;;;5052290;28;20082;-46
2022/01/10 02:33:05;;;;;;;5.68;1.85;;;;;;;;;;5052136;28;20384;-47
2022/01/10 02:35:39;;;;;;;2.88;1.50;;;15.40;89.40;;;;;;5052518;28;20111;-47
2022/01/10 02:38:05;;;;;;;4.13;2.03;;;;;;;;;;5052128;28;20032;-46
2022/01/10 02:40:33;;;;;;;2.80;1.88;;;;;;;;;;5051899;28;20490;-46
2022/01/10 02:42:59;;;;;;;2.83;1.70;;;;;;;;;;5052078;28;20074;-46
2022/01/10 02:45:25;;;;;;;5.00;1.80;;;;;;;;;;5052328;28;20419;-47
2022/01/10 02:47:51;;;;;;;3.60;1.58;;;;;;;;;;5052063;28;20032;-47
2022/01/10 02:50:18;;;;;;;4.05;1.73;;;;;;;;;;5052101;28;20490;-46
2022/01/10 02:52:44;;;;;;;3.03;2.00;;;;;;;;;;5051931;28;20028;-47
2022/01/10 02:55:11;;;;;;;2.25;1.77;;;15.30;88.50;;;;;;5051948;28;20150;-46
2022/01/10 02:57:37;;;;;;;3.13;2.08;;;15.30;89.60;;;;;;5051979;28;20068;-46
2022/01/10 03:00:13;;;;;;;4.50;1.90;;;15.30;83.80;;;;;;5052050;28;20057;-48
2022/01/10 03:02:41;;;;;;;3.95;1.48;;;;;;;;;;5051624;28;20052;-48
2022/01/10 03:05:07;;;;;;;4.45;1.70;;;;;;;;;;5051792;28;20071;-47
2022/01/10 03:07:33;;;;;;;3.10;1.60;;;;;;;;;;5051786;28;20036;-47
2022/01/10 03:09:59;;;;;;;3.38;2.00;;;;;;;;;;5051868;28;20017;-48
2022/01/10 03:12:26;;;;;;;4.68;2.10;;;;;;;;;;5052015;28;20051;-47
2022/01/10 03:14:52;;;;;;;2.58;1.67;;;;;;;;;;5051764;28;20469;-47
2022/01/10 03:17:18;;;;;;;3.20;1.80;;;;;;;;;;5051851;28;20118;-47
2022/01/10 03:19:44;;;;;;;2.90;1.83;;;;;;;;;;5051772;28;20472;-47
2022/01/10 03:22:10;;;;;;;3.25;1.70;;;;;;;;;;5051718;28;20495;-49
2022/01/10 03:24:36;;;;;;;4.70;2.40;;;15.20;86.40;;;;;;5051513;28;20037;-48
2022/01/10 03:27:02;;;;;;;2.15;1.60;;;;;;;;;;5051659;28;20089;-47
2022/01/10 03:29:28;;;;;;;4.30;2.22;;;15.20;86.00;;;;;;5051540;28;20028;-48
2022/01/10 03:31:54;;;;;;;4.30;2.17;;;;;;;;;;5051635;28;20029;-47
2022/01/10 03:34:20;;;;;;;4.28;1.90;;;;;;;;;;5051402;28;20045;-46
2022/01/10 03:36:46;;;;;;;2.92;1.70;;;;;;;;;;5051601;28;20029;-47
2022/01/10 03:39:13;;;;;;;2.60;1.85;;;;;;;;;;5051595;28;20065;-47
2022/01/10 03:41:39;;;;;;;4.60;1.98;;;;;;;;;;5051411;28;20112;-47
2022/01/10 03:44:05;;;;;;;3.90;1.95;;;15.10;89.20;;;;;;5051560;28;20029;-47
2022/01/10 03:46:34;;;;;;;4.38;1.75;;;;;;;;;;5051448;28;20036;-47
2022/01/10 03:49:01;;;;;;;3.38;1.85;;;;;;;;;;5051478;28;20064;-47
2022/01/10 03:51:27;;;;;;;3.95;1.90;;;;;;;;;;5051418;28;20029;-47
2022/01/10 03:53:53;;;;;;;4.55;1.92;;;;;;;;;;5054027;28;20127;-47
2022/01/10 03:56:20;;;;;;;3.78;1.92;;;;;;;;;;5055215;28;20029;-47
2022/01/10 03:58:46;;;;;;;4.28;1.98;;;;;;;;;;5055110;28;20437;-47
2022/01/10 04:01:12;;;;;;;2.78;2.10;;;;;;;;;;5055050;28;20032;-47
2022/01/10 04:03:38;;;;;;;2.88;1.90;;;;;;;;;;5054940;28;20571;-48
2022/01/10 04:06:05;;;;;;;4.13;2.15;;;;;;;;;;5055083;28;20025;-48
2022/01/10 04:08:32;;;;;;;3.30;1.60;;;;;;;;;;5055013;28;20391;-47
2022/01/10 04:10:58;;;;;;;2.20;1.65;;;;;;;;;;5054940;28;20422;-47
2022/01/10 04:13:24;;;;;;;3.97;1.95;;;;;;;;;;5054806;28;20033;-47
2022/01/10 04:15:50;;;;;;;4.20;2.17;;;;;;;;;;5054837;28;20029;-47
2022/01/10 04:18:16;;;;;;;2.80;1.50;;;;;;;;;;5054714;28;20033;-47
2022/01/10 04:20:43;;;;;;;3.20;2.03;;;;;;;;;;5054813;28;20112;-47
2022/01/10 04:23:09;;;;;;;4.45;1.77;;;;;;;;;;5054648;28;20029;-48
2022/01/10 04:25:35;;;;;;;2.47;1.63;;;;;;;;;;5054712;28;20033;-48
2022/01/10 04:28:01;;;;;;;2.92;1.85;;;;;;;;;;5054788;28;20040;-47
2022/01/10 04:30:27;;;;;;;3.53;1.60;;;;;;;;;;5054579;28;20040;-46
2022/01/10 04:32:53;;;;;;;2.80;1.90;;;;;;;;;;5054579;28;20033;-46
2022/01/10 04:35:19;;;;;;;5.03;2.20;;;;;;;;;;5054444;28;20475;-45
2022/01/10 04:37:45;;;;;;;3.22;1.70;;;;;;;;;;5054484;28;20032;-46
2022/01/10 04:40:12;;;;;;;4.97;2.38;;;;;;;;;;5054331;28;20029;-45
2022/01/10 04:42:38;;;;;;;2.83;2.05;;;;;;;;;;5054396;28;20053;-46
2022/01/10 04:45:04;;;;;;;4.28;2.22;;;;;;;;;;5054272;28;20032;-46
2022/01/10 04:47:30;;;;;;;6.03;2.15;;;;;;;;;;5054428;28;20112;-47
2022/01/10 04:52:37;;;;;;;4.70;2.38;;;;;;;;;;5054499;28;20040;-46
2022/01/10 04:55:04;;;;;;;7.70;2.33;;;;;;;;;;5054254;28;20033;-47
2022/01/10 04:57:30;;;;;;;3.35;2.03;;;;;;;;;;5054094;28;20096;-46
2022/01/10 04:59:56;;;;;;;3.15;2.10;;;;;;;;;;5054246;28;20120;-46
2022/01/10 05:06:36;;;;;;;4.68;2.28;;;14.80;84.20;;;;;;5061016;28;20082;-46
2022/01/10 05:09:02;;;;;;;5.10;2.08;;;;;;;;;;5054369;28;20021;-47
2022/01/10 05:11:28;;;;;;;3.55;2.22;;;;;;;;;;5054008;28;20371;-47
2022/01/10 05:13:54;;;;;;;5.03;2.50;;;;;;;;;;5053955;28;20045;-46
2022/01/10 05:16:20;;;;;;;3.63;1.70;;;;;;;;;;5053928;28;20055;-47
2022/01/10 05:18:46;;;;;;;3.22;2.30;;;;;;;;;;5054194;28;20125;-47
2022/01/10 05:21:13;;;;;;;7.78;2.20;;;;;;;;;;5053906;28;20433;-47
2022/01/10 05:23:39;;;;;;;5.03;2.22;;;;;;;;;;5053996;28;20052;-46
2022/01/10 05:26:06;;;;;;;3.97;2.10;;;;;;;;;;5053784;28;20029;-46
2022/01/10 05:28:32;;;;;;;4.70;2.15;;;;;;;;;;5053898;28;20035;-47
2022/01/10 05:31:01;;;;;;;5.90;1.88;;;;;;;;;;5053957;28;20459;-46
2022/01/10 05:33:27;;;;;;;3.58;2.17;;;;;;;;;;5053745;28;20033;-48
2022/01/10 05:35:53;;;;;;;6.60;2.55;;;;;;;;;;5053541;28;20033;-48
2022/01/10 05:38:19;;;;;;;4.18;2.17;;;;;;;;;;5053705;28;20479;-47
2022/01/10 05:40:45;;;;;;;4.43;2.17;;;;;;;;;;5053706;28;20489;-48
2022/01/10 05:43:11;;;;;;;5.55;2.20;;;;;;;;;;5053524;28;20051;-47
2022/01/10 05:45:37;;;;;;;4.78;2.58;;;;;;;;;;5053448;28;20032;-47
2022/01/10 05:48:10;;;;;;;5.45;2.13;;;;;;;;;;5053379;28;20036;-47
2022/01/10 05:50:37;;;;;;;4.88;2.25;;;;;;;;;;5053314;28;20037;-47
2022/01/10 05:53:04;;;;;;;4.57;2.40;;;14.70;88.70;;;;;;5053155;28;20020;-47
2022/01/10 05:55:30;;;;;;;5.43;2.22;;;;;;;;;;5053501;28;20044;-47
2022/01/10 05:57:56;;;;;;;3.38;2.28;;;;;;;;;;5053180;28;20467;-47
2022/01/10 06:00:22;;;;;;;3.13;2.08;;;;;;;;;;5053115;28;20568;-47
2022/01/10 06:02:48;;;;;;;4.15;2.00;;;;;;;;;;5052790;28;20132;-48
2022/01/10 06:05:14;;;;;;;6.18;2.78;;;;;;;;;;5053037;28;20032;-46
2022/01/10 06:07:41;;;;;;;4.15;2.00;;;;;;;;;;5052924;28;20112;-47
2022/01/10 06:10:07;;;;;;;3.88;2.05;;;;;;;;;;5052952;28;20557;-47
2022/01/10 06:12:33;;;;;;;3.70;2.05;;;;;;;;;;5052860;28;20040;-46
2022/01/10 06:14:59;;;;;;;5.30;2.05;;;;;;;;;;5052661;28;20041;-48
2022/01/10 06:17:25;;;;;;;3.55;1.90;;;;;;;;;;5052469;28;20104;-48
2022/01/10 06:19:51;;;;;;;3.88;1.70;;;;;;;;;;5052708;28;20112;-49
2022/01/10 06:22:17;;;;;;;3.63;2.15;;;;;;;;;;5052685;28;20446;-47
2022/01/10 06:24:43;;;;;;;4.20;1.80;;;;;;;;;;5052471;28;20055;-47
2022/01/10 06:27:09;;;;;;;3.47;1.90;;;;;;;;;;5052418;28;20541;-47
2022/01/10 06:29:35;;;;;;;2.58;1.73;;;;;;;;;;5052613;28;20029;-47
2022/01/10 06:32:01;;;;;;;2.90;2.03;;;;;;;;;;5052362;28;20032;-46
2022/01/10 06:34:28;;;;;;;4.35;2.13;;;;;;;;;;5052285;28;20048;-46
2022/01/10 06:36:54;;;;;;;4.82;1.98;;;;;;;;;;5052244;28;20021;-46
2022/01/10 06:39:20;;;;;;;4.15;2.15;;;;;;;;;;5052298;28;20033;-47
2022/01/10 06:41:46;;;;;;;3.63;1.90;;;;;;;;;;5052205;28;20025;-47
2022/01/10 06:44:12;;;;;;;3.50;1.88;;;;;;;;;;5052470;28;20107;-49
2022/01/10 06:46:38;;;;;;;3.55;1.88;;;;;;;;;;5052084;28;20060;-46
2022/01/10 06:49:04;;;;;;;3.03;1.95;;;;;;;;;;5052041;28;20037;-47
2022/01/10 06:51:30;;;;;;;3.38;1.55;;;;;;;;;;5052154;28;20029;-47
2022/01/10 06:53:56;;;;;;;7.22;2.03;;;;;;;;;;5052091;28;20033;-47
2022/01/10 06:56:21;;;;;;;5.50;1.63;;;;;;;;;;5052223;28;20098;-47
2022/01/10 06:58:47;;;;;;;3.63;1.77;;;;;;;;;;5052249;28;20475;-47
2022/01/10 07:01:17;;;;;;;3.40;1.90;;;15.80;90.20;;;;;;5052409;28;20056;-46
2022/01/10 07:03:44;;;;;;;3.10;1.70;;;;;;;;;;5052099;28;20218;-46
2022/01/10 07:06:10;;;;;;;3.40;1.90;;;;;;;;;;5052100;28;20024;-46
2022/01/10 07:08:36;;;;;;;3.53;2.22;;;;;;;;;;5052510;28;20029;-47
2022/01/10 07:11:02;;;;;;;3.30;2.00;;;;;;;;;;5052235;28;20021;-47
2022/01/10 07:13:28;;;;;;;2.63;1.63;;;;;;;;;;5052075;28;20475;-47
2022/01/10 07:15:54;;;;;;;7.97;2.55;;;;;;;;;;5052080;28;20064;-47
2022/01/10 07:18:20;;;;;;;4.13;2.20;;;;;;;;;;5052408;28;20021;-48
2022/01/10 07:20:46;;;;;;;4.75;2.45;;;;;;;;;;5052009;28;20033;-47
2022/01/10 07:23:12;;;;;;;5.45;2.05;;;;;;;;;;5052030;28;20017;-47
2022/01/10 07:25:38;;;;;;;6.72;2.42;;;;;;;;;;5051753;28;20394;-47
2022/01/10 07:28:04;;;;;;;3.67;2.10;;;;;;;;;;5052709;28;20028;-47
2022/01/10 07:30:30;;;;;;;5.65;2.53;;;;;;;;;;5055529;28;20033;-46
2022/01/10 07:32:56;;;;;;;6.18;2.53;;;;;;;;;;5055863;28;20392;-47
2022/01/10 07:35:22;;;;;;;5.05;2.38;;;;;;;;;;5055740;28;20037;-49
2022/01/10 07:37:48;;;;;;;3.97;2.00;;;;;;;;;;5055840;28;20065;-46
2022/01/10 07:40:14;;;;;;;6.68;2.53;;;;;;;;;;5055807;28;20058;-46
2022/01/10 07:42:40;;;;;;;4.45;2.20;;;;;;;;;;5055813;28;20143;-46
2022/01/10 07:45:06;;;;;;;4.13;2.13;;;;;;;;;;5055673;28;20116;-46
2022/01/10 07:47:33;;;;;;;5.47;2.60;;;16.30;85.80;;;;;;5055816;28;20063;-45
2022/01/10 07:49:59;;;;;;;6.90;2.53;;;;;;;;;;5055594;28;20078;-47
2022/01/10 07:52:26;;;;;;;3.47;1.95;;;;;;;;;;5055598;28;20021;-46
2022/01/10 07:54:52;;;;;;;5.07;2.20;;;;;;;;;;5056072;28;20064;-47
2022/01/10 07:57:18;;;;;;;3.35;2.15;;;;;;;;;;5055463;28;20036;-46
2022/01/10 07:59:44;;;;;;;3.30;1.58;;;;;;;;;;5055489;28;20383;-46
2022/01/10 08:02:11;;;;;;;4.55;2.22;;;;;;;;;;5055065;28;20055;-46
2022/01/10 08:04:37;;;;;;;10.25;2.28;;;;;;;;;;5055489;28;20033;-47
2022/01/10 08:07:04;;;;;;;10.48;2.63;;;16.40;88.70;;;;;;5055263;28;20033;-48
2022/01/10 08:09:30;;;;;;;9.13;2.65;;;;;;;;;;5055236;28;20025;-47
2022/01/10 08:11:59;;;;;;;7.88;2.83;;;;;;;;;;5055002;28;20021;-50
2022/01/10 08:14:26;;;;;;;6.85;2.60;;;16.40;88.90;;;;;;5055067;28;20529;-47
2022/01/10 08:16:52;;;;;;;9.43;2.63;;;;;;;;;;5055202;28;20035;-47
2022/01/10 08:19:18;;;;;;;4.38;2.67;;;;;;;;;;5055077;28;20029;-48
2022/01/10 08:21:44;;;;;;;7.90;3.00;;;;;;;;;;5055346;28;20029;-46
2022/01/10 08:24:10;;;;;;;7.10;2.70;;;;;;;;;;5054915;28;20108;-46
2022/01/10 08:26:36;;;;;;;7.85;2.85;;;;;;;;;;5054804;28;20032;-47
2022/01/10 08:29:02;;;;;;;6.10;2.17;;;;;;;;;;5054954;28;20391;-47
2022/01/10 08:31:28;;;;;;;4.72;2.17;;;;;;;;;;5055135;28;20021;-45
2022/01/10 08:33:54;;;;;;;4.82;2.33;;;;;;;;;;5054962;28;20039;-46
2022/01/10 08:36:20;;;;;;;5.50;2.20;;;;;;;;;;5054746;28;20360;-46
2022/01/10 08:38:46;;;;;;;6.15;2.15;;;;;;;;;;5054514;28;20025;-46
2022/01/10 08:41:12;;;;;;;7.10;2.70;;;;;;;;;;5055040;28;20032;-47
2022/01/10 08:43:38;;;;;;;7.00;2.70;;;;;;;;;;5055027;28;20375;-49
2022/01/10 08:46:04;;;;;;;4.55;2.30;;;;;;;;;;5054612;28;20021;-48
2022/01/10 08:48:30;;;;;;;3.78;2.20;;;;;;;;;;5054555;28;20032;-47
2022/01/10 08:50:56;;;;;;;5.72;2.80;;;;;;;;;;5054846;28;20109;-48
2022/01/10 08:53:22;;;;;;;5.20;2.17;;;;;;;;;;5054624;28;20033;-48
2022/01/10 08:55:49;;;;;;;7.50;2.42;;;;;;;;;;5054740;28;20091;-48
2022/01/10 08:58:15;;;;;;;5.03;2.85;;;;;;;;;;5054437;28;20032;-48
2022/01/10 09:00:41;;;;;;;7.95;2.60;;;;;;;;;;5054411;28;20104;-46
2022/01/10 09:03:07;;;;;;;6.50;2.35;;;;;;;;;;5054026;28;20048;-45
2022/01/10 09:05:33;;;;;;;4.45;2.38;;;;;;;;;;5054474;28;20036;-46
2022/01/10 09:08:00;;;;;;;3.53;2.15;;;;;;;;;;5054191;28;20040;-45
2022/01/10 09:10:26;;;;;;;3.17;2.17;;;16.00;89.10;;;;;;5054101;28;20423;-46
2022/01/10 09:12:53;;;;;;;7.15;2.65;;;16.00;85.60;;;;;;5054124;28;20029;-47
2022/01/10 09:15:19;;;;;;;8.38;2.95;;;;;;;;;;5054017;28;20036;-45
2022/01/10 09:17:45;;;;;;;7.15;2.40;;;;;;;;;;5054092;28;20025;-48
2022/01/10 09:20:11;;;;;;;7.45;2.25;;;;;;;;;;5054259;28;20036;-47
2022/01/10 09:22:37;;;;;;;4.50;2.50;;;;;;;;;;5053878;28;20029;-47
2022/01/10 09:25:04;;;;;;;4.25;2.53;;;15.70;88.10;;;;;;5053868;28;20035;-50
2022/01/10 09:27:30;;;;;;;5.85;2.53;;;;;;;;;;5053822;28;20395;-48
2022/01/10 09:29:56;;;;;;;4.60;2.72;;;;;;;;;;5053824;28;20025;-48
2022/01/10 09:32:22;;;;;;;6.65;2.70;;;;;;;;;;5053716;28;20029;-47
2022/01/10 09:34:48;;;;;;;4.85;2.35;;;;;;;;;;5053408;28;20041;-48
2022/01/10 09:37:14;;;;;;;4.50;2.17;;;;;;;;;;5053698;28;20028;-48
2022/01/10 09:39:40;;;;;;;6.35;2.83;;;;;;;;;;5053559;28;20032;-48
2022/01/10 09:42:06;;;;;;;4.80;2.97;;;;;;;;;;5053564;28;20033;-48
2022/01/10 09:44:34;;;;;;;6.45;2.67;;;;;;;;;;5053419;28;20482;-47
2022/01/10 09:47:00;;;;;;;5.60;2.35;;;;;;;;;;5053408;28;20024;-48
2022/01/10 09:49:26;;;;;;;4.80;2.42;;;;;;;;;;5053411;28;20033;-49
2022/01/10 09:51:52;;;;;;;5.75;2.80;;;;;;;;;;5052471;28;20028;-47
2022/01/10 09:54:18;;;;;;;6.55;2.83;;;;;;;;;;5053273;28;20048;-49
2022/01/10 09:56:47;;;;;;;6.20;2.80;;;16.20;89.20;;;;;;5053589;28;20048;-48
2022/01/10 09:59:14;;;;;;;6.15;2.95;;;;;;;;;;5053244;28;20063;-47
2022/01/10 10:01:40;;;;;;;5.35;2.40;;;;;;;;;;5052921;28;20478;-47
2022/01/10 10:04:06;;;;;;;4.38;2.15;;;;;;;;;;5053427;28;20383;-49
2022/01/10 10:06:33;;;;;;;6.20;2.53;;;16.20;89.30;;;;;;5053093;28;20025;-50
2022/01/10 10:09:09;;;;;;;4.60;2.78;;;16.10;90.00;;;;;;5053314;28;20021;-47
2022/01/10 10:11:47;;;;;;;4.15;2.20;;;16.10;89.70;;;;;;5053231;28;20390;-47
2022/01/10 10:14:17;;;;;;;5.50;2.72;;;16.20;89.60;;;;;;5053191;28;20392;-46
2022/01/10 10:16:49;;;;;;;6.57;2.55;;;;;;;;;;5052885;28;20632;-48
2022/01/10 10:19:20;;;;;;;5.40;2.17;;;16.20;89.60;;;;;;5052870;28;20024;-48
2022/01/10 10:21:46;;;;;;;6.72;2.42;;;;;;;;;;5053069;28;20094;-47
2022/01/10 10:24:13;;;;;;;5.15;2.70;;;;;;;;;;5052700;28;20032;-48
2022/01/10 10:26:39;;;;;;;7.38;3.20;;;16.30;86.30;;;;;;5052755;28;20021;-48
2022/01/10 10:29:05;;;;;;;4.15;2.40;;;;;;;;;;5052636;28;20138;-48
2022/01/10 10:31:34;;;;;;;6.95;2.83;;;16.30;89.80;;;;;;5052982;28;20025;-46
2022/01/10 10:34:03;;;;;;;9.38;2.58;;;16.30;89.00;;;;;;5051252;28;20028;-47
2022/01/10 10:36:31;;;;;;;4.80;2.60;;;16.20;90.70;;;;;;5052593;28;20091;-47
2022/01/10 10:38:58;;;;;;;11.07;3.00;;;;;;;;;;5052574;28;20059;-47
2022/01/10 10:41:24;;;;;;;5.43;2.53;;;;;;;;;;5052788;28;20104;-47
2022/01/10 10:43:51;;;;;;;7.03;2.50;;;;;;;;;;5052510;28;20036;-47
2022/01/10 10:46:18;;;;;;;16.05;3.13;;;;;;;;;;5052746;28;20049;-47
2022/01/10 10:48:58;;;;;;;9.20;3.17;;;16.10;90.00;;;;;;5052649;28;20383;-47
2022/01/10 10:51:28;;;;;;;;;;;16.10;93.20;;;;;;5051610;28;20471;-48
2022/01/10 10:54:00;;;;;;;10.80;3.85;;;16.20;93.10;;;;;;5052261;28;19919;-47
2022/01/10 10:56:26;;;;;;;5.32;2.72;;;;;;;;;;5052247;28;20025;-47
2022/01/10 10:58:53;;;;;;;3.33;2.50;;;16.10;93.40;;;;;;5052126;28;20025;-48
2022/01/10 11:01:19;;;;;;;4.32;3.20;;;;;;;;;;5051838;28;20056;-48
2022/01/10 11:03:45;;;;;;;6.90;3.30;;;;;;;;;;5051774;28;20130;-48
2022/01/10 11:06:11;;;;;;;7.13;3.05;;;;;;;;;;5051927;28;20036;-47
2022/01/10 11:08:40;;;;;;;5.28;2.83;;;16.10;93.80;;;;;;5051887;28;20025;-47
2022/01/10 11:11:06;;;;;;;9.23;3.22;;;;;;;;;;5051846;28;20028;-48
2022/01/10 11:13:32;;;;;;;6.85;2.78;;;;;;;;;;5051757;28;20115;-47
2022/01/10 11:15:58;;;;;;;5.90;3.13;;;;;;;;;;5051959;28;20082;-47
2022/01/10 11:18:25;;;;;;;5.75;2.53;;;;;;;;;;5051808;28;20463;-47
2022/01/10 11:20:52;;;;;;;5.63;3.17;;;15.90;93.80;;;;;;5051728;28;20040;-47
2022/01/10 11:23:18;;;;;;;5.15;3.40;;;;;;;;;;5051775;28;20098;-48
2022/01/10 11:25:44;;;;;;;8.07;3.13;;;;;;;;;;5051743;28;20475;-48
2022/01/10 11:28:17;;;;;;;4.53;2.70;;;16.00;93.60;;;;;;5052059;28;20436;-47
2022/01/10 11:30:45;;;;;;;5.35;2.97;;;15.80;93.40;;;;;;5051740;28;20025;-48
2022/01/10 11:33:13;;;;;;;4.60;2.70;;;;;;;;;;5051857;28;20090;-47
2022/01/10 11:35:41;;;;;;;5.03;2.40;;;15.80;93.20;;;;;;5051992;28;20302;-47
2022/01/10 11:38:31;;;;;;;5.18;2.80;;;15.80;90.30;;;;;;5051813;28;20468;-47
2022/01/10 11:40:57;;;;;;;4.27;2.53;;;;;;;;;;5051778;28;20032;-48
2022/01/10 11:43:33;;;;;;;6.38;2.78;;;15.90;90.70;;;;;;5051874;28;20033;-50
2022/01/10 11:46:37;;;;;;;3.47;2.90;;;16.10;90.80;;;;;;5051905;28;20467;-48
2022/01/10 11:49:04;;;;;;;6.63;3.03;;;16.00;93.50;;;;;;5052029;28;20024;-47
2022/01/10 11:51:36;;;;;;;5.70;3.38;;;16.10;93.90;;;;;;5051587;28;20435;-47
2022/01/10 11:54:14;;;;;;;6.25;3.45;;;16.00;94.00;;;;;;5051967;28;20466;-48
2022/01/10 11:56:48;;;;;;;4.82;3.22;;;16.00;94.10;;;;;;5051942;28;20108;-49
2022/01/10 11:59:28;;;;;;;6.63;3.60;;;16.00;94.30;;;;;;5051622;28;20082;-48
2022/01/10 12:02:14;;;;;;;5.05;3.50;;;16.00;94.60;;;;;;5051696;28;20419;-50
2022/01/10 12:04:48;;;;;;;6.63;3.08;;;16.00;91.60;;;;;;5051788;28;20033;-47
2022/01/10 12:07:16;;;;;;;7.03;3.22;;;16.00;94.60;;;;;;5051774;28;20438;-48
2022/01/10 12:09:44;;;;;;;5.28;3.00;;;;;;;;;;5051314;28;20048;-47
2022/01/10 12:12:13;;;;;;;5.85;3.17;;;15.90;94.70;;;;;;5051752;28;20444;-47
2022/01/10 12:14:39;;;;;;;8.02;3.00;;;;;;;;;;5053457;28;20037;-47
2022/01/10 12:17:08;;;;;;;6.32;3.05;;;;;;;;;;5055179;28;20044;-47
2022/01/10 12:19:34;;;;;;;2.78;2.53;;;;;;;;;;5055282;28;20041;-47
2022/01/10 12:22:00;;;;;;;4.95;3.08;;;;;;;;;;5055107;28;20050;-47
2022/01/10 12:24:26;;;;;;;5.97;2.38;;;;;;;;;;5054951;28;20033;-47
2022/01/10 12:26:52;;;;;;;5.95;2.90;;;;;;;;;;5055014;28;20033;-46
2022/01/10 12:29:19;;;;;;;3.83;2.67;;;;;;;;;;5055110;28;20159;-47
2022/01/10 12:31:46;;;;;;;6.65;2.92;;;;;;;;;;5054945;28;20119;-47
2022/01/10 12:34:14;;;;;;;3.35;2.50;;;15.80;94.90;;;;;;5054803;28;20041;-47
2022/01/10 12:36:41;;;;;;;4.45;2.95;;;15.90;94.90;;;;;;5055126;28;20036;-47
2022/01/10 12:39:17;;;;;;;3.97;2.75;;;15.90;92.00;;;;;;5054975;28;20067;-48
2022/01/10 12:41:43;;;;;;;4.05;2.75;;;;;;;;;;5055118;28;20017;-49
2022/01/10 12:44:09;;;;;;;4.38;2.47;;;;;;;;;;5054724;28;20025;-48
2022/01/10 12:46:36;;;;;;;4.13;2.50;;;;;;;;;;5054706;28;20211;-47
2022/01/10 12:49:10;;;;;;;3.45;2.92;;;15.80;92.00;;;;;;5054885;28;20033;-48
2022/01/10 12:51:48;;;;;;;3.63;2.63;;;15.70;94.70;;;;;;5054526;28;20116;-49
2022/01/10 12:54:29;;;;;;;5.57;3.38;;;15.70;94.50;;;;;;5054654;28;20387;-47
2022/01/10 12:56:56;;;;;;;2.55;2.17;;;15.70;93.50;;;;;;5054452;28;20025;-47
2022/01/10 12:59:24;;;;;;;4.85;2.78;;;15.70;94.30;;;;;;5054345;28;20376;-47
2022/01/10 13:01:52;;;;;;;3.28;2.13;;;;;;;;;;5053642;28;20080;-48
2022/01/10 13:04:23;;;;;;;3.80;2.53;;;15.70;91.60;;;;;;5054285;28;20029;-48
2022/01/10 13:06:51;;;;;;;4.72;2.30;;;;;;;;;;5053631;28;20055;-48
2022/01/10 13:09:17;;;;;;;3.70;2.30;;;16.00;93.10;;;;;;5053482;28;20452;-48
2022/01/10 13:11:46;;;;;;;3.72;2.40;;;;;;;;;;5053759;28;20032;-47
2022/01/10 13:14:14;;;;;;;2.80;2.40;;;16.40;93.90;;;;;;5053695;28;20039;-48
2022/01/10 13:16:42;;;;;;;3.60;2.03;;;16.60;93.90;;;;;;5053770;28;20115;-47
2022/01/10 13:19:13;;;;;;;4.10;2.20;;;16.80;93.80;;;;;;5054299;28;20104;-46
2022/01/10 13:21:52;;;;;;;2.75;1.95;;;16.90;91.00;;;;;;5054247;28;20382;-46
2022/01/10 13:24:20;;;;;;;2.75;1.80;;;17.10;93.80;;;;;;5054227;28;20079;-46
2022/01/10 13:26:57;;;;;;;4.10;2.10;;;17.30;90.90;;;;;;5053512;28;20060;-46
2022/01/10 13:29:43;;;;;;;3.97;2.25;;;17.30;91.00;;;;;;5053514;28;20041;-47
2022/01/10 13:32:11;;;;;;;3.03;1.88;;;17.50;90.70;;;;;;5053361;28;20112;-47
2022/01/10 13:34:37;;;;;;;3.05;1.98;;;;;;;;;;5053177;28;20041;-47
2022/01/10 13:37:03;;;;;;;2.65;2.03;;;;;;;;;;5053508;28;20025;-47
2022/01/10 13:39:30;;;;;;;2.88;2.00;;;;;;;;;;5053267;28;20025;-47
2022/01/10 13:42:00;;;;;;;2.13;1.73;;;17.30;90.70;;;;;;5053453;28;20407;-48
2022/01/10 13:44:26;;;;;;;3.42;2.63;;;17.20;92.60;;;;;;5053428;28;20025;-47
2022/01/10 13:47:06;;;;;;;2.38;2.13;;;17.20;91.00;;;;;;5053414;28;20027;-46
2022/01/10 13:49:33;;;;;;;2.42;1.73;;;17.10;93.00;;;;;;5053786;28;20360;-48
2022/01/10 13:52:09;;;;;;;2.90;2.30;;;17.20;90.90;;;;;;5053389;28;20079;-47
2022/01/10 13:54:35;;;;;;;2.85;1.60;;;;;;;;;;5053234;28;20037;-47
2022/01/10 13:57:22;;;;;;;2.25;1.90;;;17.40;90.80;;;;;;5053342;28;20051;-46
2022/01/10 14:00:08;;;;;;;5.82;2.20;;;17.40;93.50;;;;;;5051997;28;20032;-46
2022/01/10 14:02:38;;;;;;;2.30;2.10;;;17.60;90.70;;;;;;5052379;28;20410;-47
2022/01/10 14:05:24;;;;;;;4.05;1.85;;;17.60;90.70;;;;;;5052841;28;20020;-46
2022/01/10 14:07:51;;;;;;;2.80;2.00;;;;;;;;;;5053018;28;20053;-46
2022/01/10 14:10:17;;;;;;;2.58;1.92;;;;;;;;;;5052984;28;20150;-46
2022/01/10 14:12:43;;;;;;;2.65;1.63;;;;;;;;;;5052776;28;20044;-46
2022/01/10 14:15:10;;;;;;;2.58;1.85;;;;;;;;;;5052827;28;20033;-46
2022/01/10 14:17:36;;;;;;;3.47;2.05;;;;;;;;;;5052536;28;20503;-46
2022/01/10 14:20:04;;;;;;;2.65;1.70;;;18.00;93.10;;;;;;5052548;28;20056;-46
2022/01/10 14:22:30;;;;;;;2.55;1.75;;;;;;;;;;5052669;28;20025;-46
2022/01/10 14:24:56;;;;;;;2.40;1.88;;;;;;;;;;5052318;28;20074;-46
2022/01/10 14:27:22;;;;;;;2.60;1.70;;;;;;;;;;5052397;28;20033;-46